createdAt,value
2022-08-18T00:02:11.139Z,11.03
2022-08-18T00:04:49.206Z,11.20
2022-08-18T00:07:28.914Z,11.37
2022-08-18T00:09:56.009Z,11.07
2022-08-18T00:12:32.671Z,11.83
2022-08-18T00:15:05.182Z,10.80
2022-08-18T00:17:34.313Z,11.03
2022-08-18T00:20:01.508Z,11.93
2022-08-18T00:22:28.835Z,11.20
2022-08-18T00:24:57.098Z,12.33
2022-08-18T00:27:28.765Z,12.30
2022-08-18T00:29:58.085Z,12.60
2022-08-18T00:32:28.939Z,12.30
2022-08-18T00:34:56.305Z,12.37
2022-08-18T00:37:24.106Z,12.20
2022-08-18T00:39:52.665Z,12.37
2022-08-18T00:42:30.710Z,11.97
2022-08-18T00:45:01.630Z,12.57
2022-08-18T00:47:36.402Z,11.53
2022-08-18T00:50:15.464Z,10.83
2022-08-18T00:52:47.883Z,12.37
2022-08-18T00:55:17.863Z,11.33
2022-08-18T00:57:46.190Z,11.73
2022-08-18T01:00:14.074Z,11.20
2022-08-18T01:02:49.750Z,12.70
2022-08-18T01:05:33.871Z,11.47
2022-08-18T01:08:01.165Z,11.50
2022-08-18T01:10:28.246Z,12.03
2022-08-18T01:12:57.487Z,12.13
2022-08-18T01:15:28.887Z,11.90
2022-08-18T01:18:17.277Z,11.80
2022-08-18T01:21:26.963Z,12.40
2022-08-18T01:23:54.886Z,12.27
2022-08-18T01:26:24.208Z,11.93
2022-08-18T01:28:52.423Z,10.53
2022-08-18T01:31:38.099Z,11.00
2022-08-18T01:34:10.519Z,11.87
2022-08-18T01:36:40.507Z,11.97
2022-08-18T01:39:12.720Z,12.33
2022-08-18T01:41:40.700Z,12.77
2022-08-18T01:44:11.167Z,13.50
2022-08-18T01:46:41.569Z,12.03
2022-08-18T01:49:10.459Z,12.40
2022-08-18T01:51:41.411Z,12.77
2022-08-18T01:54:12.546Z,11.73
2022-08-18T01:56:42.334Z,12.07
2022-08-18T01:59:14.518Z,12.47
2022-08-18T02:01:50.331Z,11.73
2022-08-18T02:04:35.686Z,12.37
2022-08-18T02:07:07.411Z,11.97
2022-08-18T02:09:34.781Z,12.30
2022-08-18T02:12:01.670Z,11.77
2022-08-18T02:14:31.086Z,13.13
2022-08-18T02:17:01.621Z,12.90
2022-08-18T02:19:35.167Z,13.50
2022-08-18T02:22:02.662Z,13.60
2022-08-18T02:24:29.402Z,11.90
2022-08-18T02:26:56.676Z,13.00
2022-08-18T02:29:23.458Z,12.70
2022-08-18T02:31:50.603Z,13.20
2022-08-18T02:34:18.119Z,14.33
2022-08-18T02:36:45.627Z,14.57
2022-08-18T02:39:12.381Z,13.77
2022-08-18T02:41:39.451Z,13.33
2022-08-18T02:44:07.973Z,13.57
2022-08-18T02:46:35.738Z,12.37
2022-08-18T02:49:03.795Z,13.67
2022-08-18T02:51:30.909Z,12.83
2022-08-18T02:54:00.596Z,13.17
2022-08-18T02:56:40.812Z,13.10
2022-08-18T02:59:11.236Z,15.07
2022-08-18T03:01:40.612Z,12.60
2022-08-18T03:04:10.091Z,12.77
2022-08-18T03:06:38.121Z,13.67
2022-08-18T03:09:10.059Z,13.33
2022-08-18T03:11:38.047Z,13.60
2022-08-18T03:14:06.300Z,13.03
2022-08-18T03:16:40.417Z,13.53
2022-08-18T03:19:20.230Z,12.97
2022-08-18T03:21:48.228Z,12.43
2022-08-18T03:24:19.685Z,13.03
2022-08-18T03:26:50.500Z,13.60
2022-08-18T03:29:17.677Z,14.10
2022-08-18T03:31:45.382Z,14.67
2022-08-18T03:34:12.959Z,13.47
2022-08-18T03:36:40.327Z,14.13
2022-08-18T03:39:11.001Z,13.57
2022-08-18T03:41:57.564Z,13.90
2022-08-18T03:44:27.804Z,13.30
2022-08-18T03:46:54.627Z,13.33
2022-08-18T03:49:21.515Z,14.77
2022-08-18T03:51:48.866Z,14.13
2022-08-18T03:54:17.989Z,13.23
2022-08-18T03:56:47.165Z,14.80
2022-08-18T03:59:20.772Z,15.00
2022-08-18T04:01:50.594Z,14.20
2022-08-18T04:04:23.373Z,13.73
2022-08-18T04:06:54.365Z,12.47
2022-08-18T04:09:24.521Z,14.00
2022-08-18T04:11:51.719Z,13.23
2022-08-18T04:14:21.529Z,13.10
2022-08-18T04:16:49.309Z,14.00
2022-08-18T04:19:26.347Z,13.47
2022-08-18T04:21:54.486Z,14.80
2022-08-18T04:24:21.468Z,14.23
2022-08-18T04:26:49.907Z,14.87
2022-08-18T04:29:21.138Z,15.57
2022-08-18T04:31:49.224Z,13.93
2022-08-18T04:34:16.415Z,14.17
2022-08-18T04:36:43.694Z,13.27
2022-08-18T04:39:11.906Z,15.03
2022-08-18T04:41:41.012Z,15.77
2022-08-18T04:44:12.027Z,15.70
2022-08-18T04:46:46.356Z,15.07
2022-08-18T04:49:14.109Z,14.60
2022-08-18T04:52:34.562Z,14.60
2022-08-18T04:54:53.425Z,13.20
2022-08-18T04:57:21.088Z,12.77
2022-08-18T04:59:50.253Z,13.97
2022-08-18T05:02:18.429Z,15.27
2022-08-18T05:04:48.358Z,15.97
2022-08-18T05:07:19.241Z,14.87
2022-08-18T05:09:46.934Z,15.33
2022-08-18T05:12:15.347Z,15.03
2022-08-18T05:14:47.171Z,14.13
2022-08-18T05:17:16.208Z,13.77
2022-08-18T05:19:44.603Z,15.10
2022-08-18T05:22:14.552Z,15.87
2022-08-18T05:24:42.849Z,15.60
2022-08-18T05:27:09.573Z,15.10
2022-08-18T05:29:41.453Z,14.90
2022-08-18T05:32:40.981Z,16.10
2022-08-18T05:35:12.351Z,16.47
2022-08-18T05:37:54.272Z,14.53
2022-08-18T05:40:25.059Z,14.30
2022-08-18T05:42:52.063Z,14.47
2022-08-18T05:45:20.285Z,13.03
2022-08-18T05:47:47.177Z,13.57
2022-08-18T05:50:18.640Z,14.00
2022-08-18T05:52:58.403Z,15.47
2022-08-18T05:55:52.541Z,15.13
2022-08-18T05:58:33.108Z,16.00
2022-08-18T06:01:18.139Z,17.40
2022-08-18T06:04:01.554Z,14.57
2022-08-18T06:06:30.468Z,15.80
2022-08-18T06:09:28.282Z,15.77
2022-08-18T06:12:05.218Z,17.20
2022-08-18T06:14:31.982Z,14.73
2022-08-18T06:17:32.050Z,16.13
2022-08-18T06:20:10.782Z,14.50
2022-08-18T06:23:24.212Z,14.43
2022-08-18T06:26:10.490Z,15.00
2022-08-18T06:28:52.434Z,13.80
2022-08-18T06:31:41.122Z,14.67
2022-08-18T06:34:21.349Z,14.10
2022-08-18T06:36:58.827Z,16.50
2022-08-18T06:39:48.897Z,15.13
2022-08-18T06:42:25.939Z,15.60
2022-08-18T06:44:58.259Z,16.87
2022-08-18T06:48:03.322Z,16.90
2022-08-18T06:50:43.555Z,15.30
2022-08-18T06:53:27.090Z,16.23
2022-08-18T06:55:55.957Z,16.93
2022-08-18T06:58:30.209Z,16.83
2022-08-18T07:01:01.465Z,15.90
2022-08-18T07:03:46.034Z,16.17
2022-08-18T07:06:21.702Z,17.53
2022-08-18T07:08:51.462Z,16.97
2022-08-18T07:11:25.084Z,17.80
2022-08-18T07:14:15.042Z,18.33
2022-08-18T07:16:59.779Z,17.33
2022-08-18T07:19:31.032Z,18.23
2022-08-18T07:22:17.834Z,18.43
2022-08-18T07:24:49.212Z,18.47
2022-08-18T07:27:18.918Z,17.07
2022-08-18T07:30:07.359Z,15.93
2022-08-18T07:32:46.147Z,18.53
2022-08-18T07:35:18.036Z,17.93
2022-08-18T07:38:40.857Z,21.47
2022-08-18T07:41:14.231Z,20.90
2022-08-18T07:43:53.288Z,23.20
2022-08-18T07:46:28.893Z,22.40
2022-08-18T07:48:56.394Z,19.70
2022-08-18T07:51:47.433Z,23.53
2022-08-18T07:54:45.381Z,21.23
2022-08-18T07:57:28.411Z,20.77
2022-08-18T08:00:17.413Z,25.83
2022-08-18T08:02:59.606Z,24.90
2022-08-18T08:05:53.904Z,27.53
2022-08-18T08:08:39.750Z,21.97
2022-08-18T08:11:35.721Z,28.07
2022-08-18T08:14:48.337Z,26.57
2022-08-18T08:17:32.543Z,25.97
2022-08-18T08:20:32.765Z,27.63
2022-08-18T08:23:17.892Z,28.33
2022-08-18T08:26:23.630Z,28.60
2022-08-18T08:29:05.315Z,28.77
2022-08-18T08:31:44.262Z,36.23
2022-08-18T08:34:41.689Z,33.27
2022-08-18T08:37:19.396Z,31.67
2022-08-18T08:39:57.921Z,32.53
2022-08-18T08:42:36.336Z,32.20
2022-08-18T08:45:29.551Z,31.73
2022-08-18T08:48:09.883Z,32.00
2022-08-18T08:50:46.826Z,33.67
2022-08-18T08:53:29.055Z,30.03
2022-08-18T08:56:02.702Z,28.93
2022-08-18T08:58:41.365Z,30.47
2022-08-18T09:01:14.336Z,31.10
2022-08-18T09:03:59.701Z,29.93
2022-08-18T09:06:46.074Z,27.30
2022-08-18T09:09:51.935Z,29.40
2022-08-18T09:12:37.241Z,29.63
2022-08-18T09:15:25.378Z,28.47
2022-08-18T09:18:08.583Z,31.00
2022-08-18T09:20:58.209Z,34.10
2022-08-18T09:23:32.119Z,29.77
2022-08-18T09:26:20.418Z,30.97
2022-08-18T09:28:59.565Z,30.10
2022-08-18T09:31:31.818Z,32.40
2022-08-18T09:34:11.046Z,33.03
2022-08-18T09:36:48.602Z,31.40
2022-08-18T09:39:40.572Z,31.30
2022-08-18T09:42:29.915Z,31.03
2022-08-18T09:45:00.897Z,27.73
2022-08-18T09:47:27.637Z,32.30
2022-08-18T09:50:06.128Z,29.90
2022-08-18T09:52:37.609Z,29.00
2022-08-18T09:55:28.940Z,29.33
2022-08-18T09:58:20.110Z,29.90
2022-08-18T10:01:28.846Z,33.07
2022-08-18T10:07:32.014Z,28.60
2022-08-18T10:11:01.607Z,35.20
2022-08-18T10:13:33.109Z,33.53
2022-08-18T10:16:38.268Z,34.93
2022-08-18T10:19:39.814Z,34.17
2022-08-18T10:22:10.726Z,33.40
2022-08-18T10:24:47.015Z,36.90
2022-08-18T10:27:49.032Z,34.97
2022-08-18T10:30:34.273Z,34.80
2022-08-18T10:33:17.775Z,34.97
2022-08-18T10:35:58.686Z,36.20
2022-08-18T10:41:25.967Z,30.83
2022-08-18T10:43:57.875Z,31.70
2022-08-18T10:46:32.556Z,30.20
2022-08-18T10:49:09.373Z,29.10
2022-08-18T10:54:59.095Z,31.10
2022-08-18T10:57:54.549Z,30.27
2022-08-18T11:00:22.668Z,25.80
2022-08-18T11:06:18.010Z,22.85
2022-08-18T11:08:55.382Z,21.23
2022-08-18T11:11:39.338Z,20.98
2022-08-18T11:14:37.062Z,23.00
2022-08-18T11:17:12.339Z,22.40
2022-08-18T11:19:45.065Z,27.40
2022-08-18T11:25:32.480Z,19.98
2022-08-18T11:28:01.466Z,21.55
2022-08-18T11:30:44.115Z,22.58
2022-08-18T11:33:23.078Z,19.45
2022-08-18T11:35:57.933Z,18.35
2022-08-18T11:41:23.143Z,18.67
2022-08-18T11:43:57.861Z,20.77
2022-08-18T11:46:38.808Z,19.67
2022-08-18T11:49:33.911Z,19.30
2022-08-18T11:52:15.250Z,18.83
2022-08-18T11:54:50.680Z,19.50
2022-08-18T11:57:46.373Z,17.40
2022-08-18T12:00:43.307Z,18.83
2022-08-18T12:03:28.779Z,18.23
2022-08-18T12:06:19.041Z,16.10
2022-08-18T12:08:59.065Z,19.58
2022-08-18T12:12:00.986Z,17.30
2022-08-18T12:14:35.214Z,19.35
2022-08-18T12:17:04.729Z,21.23
2022-08-18T12:19:34.436Z,17.80
2022-08-18T12:22:10.955Z,15.90
2022-08-18T12:24:39.260Z,16.25
2022-08-18T12:27:12.543Z,16.77
2022-08-18T12:29:53.137Z,16.20
2022-08-18T12:35:11.867Z,19.00
2022-08-18T12:37:58.903Z,16.40
2022-08-18T12:40:26.767Z,14.23
2022-08-18T12:42:55.737Z,14.00
2022-08-18T12:45:23.376Z,17.58
2022-08-18T12:47:52.703Z,12.80
2022-08-18T12:50:19.802Z,12.82
2022-08-18T12:52:46.975Z,12.32
2022-08-18T12:55:21.257Z,12.85
2022-08-18T13:00:37.209Z,12.77
2022-08-18T13:03:04.183Z,12.25
2022-08-18T13:05:31.181Z,11.20
2022-08-18T13:08:04.381Z,12.02
2022-08-18T13:10:42.849Z,10.65
2022-08-18T13:13:18.494Z,10.65
2022-08-18T13:15:57.980Z,10.57
2022-08-18T13:18:28.666Z,10.32
2022-08-18T13:20:57.672Z,9.38
2022-08-18T13:23:27.630Z,10.32
2022-08-18T13:25:59.378Z,9.80
2022-08-18T13:28:35.844Z,8.98
2022-08-18T13:31:16.928Z,9.48
2022-08-18T13:33:56.992Z,8.75
2022-08-18T13:36:44.265Z,8.60
2022-08-18T13:39:22.898Z,11.70
2022-08-18T13:41:52.994Z,8.35
2022-08-18T13:44:22.529Z,9.10
2022-08-18T13:46:55.509Z,8.45
2022-08-18T13:49:30.330Z,9.30
2022-08-18T13:52:00.322Z,9.68
2022-08-18T13:54:34.026Z,8.38
2022-08-18T13:57:03.208Z,8.80
2022-08-18T13:59:33.147Z,9.18
2022-08-18T14:02:05.838Z,10.20
2022-08-18T14:04:36.299Z,9.10
2022-08-18T14:07:09.192Z,8.68
2022-08-18T14:09:37.995Z,8.77
2022-08-18T14:12:15.910Z,9.20
2022-08-18T14:14:52.020Z,9.77
2022-08-18T14:17:22.598Z,9.52
2022-08-18T14:20:10.695Z,9.43
2022-08-18T14:23:01.508Z,10.55
2022-08-18T14:25:49.315Z,8.55
2022-08-18T14:28:19.577Z,9.23
2022-08-18T14:30:54.674Z,9.63
2022-08-18T14:33:34.589Z,9.70
2022-08-18T14:36:10.940Z,10.18
2022-08-18T14:38:38.486Z,10.55
2022-08-18T14:41:08.867Z,8.70
2022-08-18T14:44:10.336Z,10.77
2022-08-18T14:46:23.633Z,10.82
2022-08-18T14:48:57.601Z,11.52
2022-08-18T14:51:27.283Z,11.68
2022-08-18T14:53:55.695Z,11.07
2022-08-18T14:56:23.425Z,10.88
2022-08-18T14:58:55.378Z,10.80
2022-08-18T15:01:23.241Z,10.75
2022-08-18T15:03:50.779Z,9.68
2022-08-18T15:06:23.025Z,9.45
2022-08-18T15:08:57.036Z,9.18
2022-08-18T15:11:24.574Z,11.40
2022-08-18T15:13:51.713Z,11.05
2022-08-18T15:16:23.037Z,14.77
2022-08-18T15:18:58.792Z,12.50
2022-08-18T15:21:43.921Z,14.23
2022-08-18T15:24:29.653Z,13.30
2022-08-18T15:27:06.166Z,10.40
2022-08-18T15:29:37.117Z,11.10
2022-08-18T15:32:10.621Z,10.40
2022-08-18T15:34:46.107Z,11.23
2022-08-18T15:37:19.786Z,11.30
2022-08-18T15:39:55.563Z,11.60
2022-08-18T15:42:23.405Z,11.18
2022-08-18T15:44:52.610Z,12.30
2022-08-18T15:47:21.019Z,13.98
2022-08-18T15:49:48.494Z,14.18
2022-08-18T15:52:17.635Z,14.18
2022-08-18T15:54:51.039Z,14.63
2022-08-18T15:57:38.441Z,13.35
2022-08-18T16:00:06.745Z,13.98
2022-08-18T16:02:40.059Z,13.30
2022-08-18T16:05:10.196Z,13.10
2022-08-18T16:07:40.978Z,13.20
2022-08-18T16:10:12.747Z,13.18
2022-08-18T16:12:45.630Z,13.45
2022-08-18T16:15:21.116Z,14.82
2022-08-18T16:17:50.427Z,13.82
2022-08-18T16:20:18.913Z,13.40
2022-08-18T16:22:46.977Z,15.25
2022-08-18T16:25:14.452Z,13.90
2022-08-18T16:27:41.999Z,13.68
2022-08-18T16:30:15.731Z,14.02
2022-08-18T16:32:43.453Z,14.27
2022-08-18T16:35:11.030Z,13.77
2022-08-18T16:37:38.328Z,14.77
2022-08-18T16:40:06.126Z,13.88
2022-08-18T16:42:32.922Z,14.27
2022-08-18T16:45:00.789Z,16.30
2022-08-18T16:47:28.042Z,16.08
2022-08-18T16:49:58.635Z,15.43
2022-08-18T16:52:27.649Z,18.15
2022-08-18T16:54:57.917Z,16.77
2022-08-18T16:57:53.219Z,15.20
2022-08-18T17:00:42.050Z,16.30
2022-08-18T17:03:28.215Z,15.98
2022-08-18T17:06:00.981Z,15.48
2022-08-18T17:08:28.445Z,17.70
2022-08-18T17:10:55.304Z,16.48
2022-08-18T17:13:23.249Z,15.80
2022-08-18T17:15:50.531Z,16.83
2022-08-18T17:18:17.773Z,14.82
2022-08-18T17:20:44.554Z,14.60
2022-08-18T17:23:11.213Z,16.88
2022-08-18T17:25:38.643Z,16.13
2022-08-18T17:28:09.973Z,16.33
2022-08-18T17:30:46.273Z,15.00
2022-08-18T17:33:19.364Z,16.20
2022-08-18T17:35:47.540Z,15.32
2022-08-18T17:38:27.209Z,15.77
2022-08-18T17:40:57.106Z,16.58
2022-08-18T17:43:29.214Z,14.98
2022-08-18T17:46:01.113Z,15.13
2022-08-18T17:48:33.592Z,15.30
2022-08-18T17:51:34.735Z,15.82
2022-08-18T17:54:37.022Z,16.52
2022-08-18T17:57:35.136Z,14.07
2022-08-18T18:00:15.697Z,13.32
2022-08-18T18:02:48.090Z,14.27
2022-08-18T18:05:19.179Z,13.15
2022-08-18T18:07:52.118Z,12.63
2022-08-18T18:10:51.022Z,12.73
2022-08-18T18:13:24.261Z,11.57
2022-08-18T18:16:01.009Z,12.63
2022-08-18T18:18:31.334Z,15.60
2022-08-18T18:21:02.910Z,13.80
2022-08-18T18:23:41.945Z,13.02
2022-08-18T18:26:20.293Z,13.02
2022-08-18T18:28:47.201Z,13.32
2022-08-18T18:31:20.986Z,11.73
2022-08-18T18:34:00.395Z,13.38
2022-08-18T18:36:42.937Z,13.23
2022-08-18T18:39:33.199Z,16.73
2022-08-18T18:42:19.357Z,13.57
2022-08-18T18:44:54.762Z,13.93
2022-08-18T18:47:49.730Z,13.73
2022-08-18T18:50:26.749Z,14.68
2022-08-18T18:53:12.396Z,14.70
2022-08-18T18:55:54.587Z,14.70
2022-08-18T18:58:53.255Z,14.05
2022-08-18T19:01:38.645Z,17.52
2022-08-18T19:04:13.341Z,15.65
2022-08-18T19:07:07.915Z,15.45
2022-08-18T19:09:48.565Z,13.57
2022-08-18T19:12:33.269Z,14.27
2022-08-18T19:15:11.521Z,15.73
2022-08-18T19:17:51.084Z,13.23
2022-08-18T19:20:25.166Z,13.55
2022-08-18T19:22:54.222Z,14.83
2022-08-18T19:25:23.229Z,13.27
2022-08-18T19:28:03.921Z,13.67
2022-08-18T19:30:34.263Z,15.27
2022-08-18T19:33:04.298Z,14.83
2022-08-18T19:35:59.161Z,15.07
2022-08-18T19:38:33.757Z,12.77
2022-08-18T19:41:19.814Z,13.60
2022-08-18T19:43:59.249Z,11.83
2022-08-18T19:46:45.037Z,13.23
2022-08-18T19:49:38.474Z,12.67
2022-08-18T19:52:46.870Z,11.93
2022-08-18T19:55:36.559Z,11.60
2022-08-18T19:58:29.691Z,12.93
2022-08-18T20:01:21.012Z,12.80
2022-08-18T20:04:04.998Z,12.73
2022-08-18T20:06:50.921Z,12.27
2022-08-18T20:09:32.658Z,12.77
2022-08-18T20:12:03.038Z,12.90
2022-08-18T20:14:35.669Z,13.43
2022-08-18T20:17:12.862Z,13.83
2022-08-18T20:19:44.242Z,14.47
2022-08-18T20:22:22.113Z,13.40
2022-08-18T20:24:59.475Z,15.40
2022-08-18T20:27:37.158Z,12.63
2022-08-18T20:30:30.544Z,12.60
2022-08-18T20:33:20.592Z,12.97
2022-08-18T20:35:54.789Z,13.03
2022-08-18T20:38:28.729Z,12.23
2022-08-18T20:40:55.971Z,13.33
2022-08-18T20:43:34.865Z,14.67
2022-08-18T20:46:15.553Z,13.27
2022-08-18T20:49:13.433Z,12.70
2022-08-18T20:52:06.511Z,12.70
2022-08-18T20:55:11.747Z,14.87
2022-08-18T20:57:40.171Z,13.23
2022-08-18T21:00:15.453Z,13.17
2022-08-18T21:02:58.815Z,14.33
2022-08-18T21:05:34.438Z,14.97
2022-08-18T21:08:15.890Z,12.90
2022-08-18T21:11:06.714Z,13.10
2022-08-18T21:13:42.388Z,13.20
2022-08-18T21:16:33.728Z,13.40
2022-08-18T21:19:23.466Z,14.03
2022-08-18T21:22:02.514Z,13.27
2022-08-18T21:24:41.535Z,13.93
2022-08-18T21:27:31.410Z,14.47
2022-08-18T21:30:03.329Z,15.37
2022-08-18T21:32:33.142Z,13.57
2022-08-18T21:35:05.798Z,13.13
2022-08-18T21:37:34.732Z,13.53
2022-08-18T21:40:04.542Z,14.03
2022-08-18T21:42:37.546Z,13.67
2022-08-18T21:45:04.718Z,13.87
2022-08-18T21:47:34.252Z,13.50
2022-08-18T21:50:17.984Z,13.63
2022-08-18T21:52:53.066Z,13.83
2022-08-18T21:55:45.053Z,13.97
2022-08-18T21:58:17.763Z,14.37
2022-08-18T22:01:07.188Z,13.80
2022-08-18T22:03:50.034Z,13.80
2022-08-18T22:06:30.710Z,12.47
2022-08-18T22:09:21.013Z,13.50
2022-08-18T22:12:07.087Z,14.00
2022-08-18T22:14:55.084Z,14.30
2022-08-18T22:17:34.854Z,13.97
2022-08-18T22:20:39.415Z,14.60
2022-08-18T22:23:31.647Z,14.93
2022-08-18T22:26:20.389Z,14.63
2022-08-18T22:29:16.600Z,14.47
2022-08-18T22:31:46.638Z,14.33
2022-08-18T22:34:17.473Z,14.13
2022-08-18T22:37:04.051Z,13.47
2022-08-18T22:39:52.310Z,13.27
2022-08-18T22:42:25.654Z,13.10
2022-08-18T22:44:53.481Z,13.53
2022-08-18T22:47:20.825Z,14.27
2022-08-18T22:49:48.064Z,14.03
2022-08-18T22:52:29.883Z,14.57
2022-08-18T22:55:02.710Z,13.93
2022-08-18T22:57:36.432Z,13.40
2022-08-18T23:00:17.151Z,14.03
2022-08-18T23:03:06.953Z,13.30
2022-08-18T23:05:34.146Z,15.17
2022-08-18T23:08:02.494Z,13.70
2022-08-18T23:10:29.496Z,15.17
2022-08-18T23:12:57.388Z,15.23
2022-08-18T23:15:47.508Z,14.83
2022-08-18T23:18:19.122Z,14.10
2022-08-18T23:20:51.890Z,14.47
2022-08-18T23:23:20.993Z,13.33
2022-08-18T23:25:50.365Z,16.23
2022-08-18T23:28:19.281Z,14.67
2022-08-18T23:30:48.754Z,16.97
2022-08-18T23:33:16.056Z,14.93
2022-08-18T23:35:43.569Z,17.20
2022-08-18T23:38:12.473Z,13.83
2022-08-18T23:40:43.996Z,13.87
2022-08-18T23:43:11.096Z,14.40
2022-08-18T23:45:39.545Z,13.87
2022-08-18T23:48:08.483Z,14.90
2022-08-18T23:50:40.246Z,14.73
2022-08-18T23:53:08.539Z,15.23
2022-08-18T23:55:35.501Z,15.50
2022-08-18T23:58:02.381Z,16.60
